sensor_id;sensor_type;location;lat;lon;timestamp;noise_LAeq;noise_LA_min;noise_LA_max;noise_LA01;noise_LA95
64079;Laerm;51042;49.696;10.808;2022-11-21T00:00:24;60.65;39.30;84.98;;
64079;Laerm;51042;49.696;10.808;2022-11-21T00:02:50;47.28;39.34;67.50;;
64079;Laerm;51042;49.696;10.808;2022-11-21T00:05:15;54.13;39.84;72.65;;
64079;Laerm;51042;49.696;10.808;2022-11-21T00:07:41;48.91;38.90;69.59;;
64079;Laerm;51042;49.696;10.808;2022-11-21T00:10:06;42.54;39.23;56.31;;
64079;Laerm;51042;49.696;10.808;2022-11-21T00:12:31;49.90;39.17;71.65;;
64079;Laerm;51042;49.696;10.808;2022-11-21T00:14:57;56.09;40.09;78.28;;
64079;Laerm;51042;49.696;10.808;2022-11-21T00:17:22;53.66;39.87;76.14;;
64079;Laerm;51042;49.696;10.808;2022-11-21T00:19:47;59.34;39.94;80.03;;
64079;Laerm;51042;49.696;10.808;2022-11-21T00:22:13;56.21;39.93;76.57;;
64079;Laerm;51042;49.696;10.808;2022-11-21T00:24:38;53.72;40.32;75.06;;
64079;Laerm;51042;49.696;10.808;2022-11-21T00:27:04;56.28;41.20;78.50;;
64079;Laerm;51042;49.696;10.808;2022-11-21T00:29:29;48.83;40.01;69.56;;
64079;Laerm;51042;49.696;10.808;2022-11-21T00:31:54;41.79;39.03;59.69;;
64079;Laerm;51042;49.696;10.808;2022-11-21T00:34:20;48.33;39.00;69.85;;
64079;Laerm;51042;49.696;10.808;2022-11-21T00:36:45;46.11;38.99;66.01;;
64079;Laerm;51042;49.696;10.808;2022-11-21T00:39:10;47.95;39.42;67.94;;
64079;Laerm;51042;49.696;10.808;2022-11-21T00:41:36;45.05;39.24;61.71;;
64079;Laerm;51042;49.696;10.808;2022-11-21T00:44:01;45.39;39.13;65.22;;
64079;Laerm;51042;49.696;10.808;2022-11-21T00:46:26;54.25;39.16;70.35;;
64079;Laerm;51042;49.696;10.808;2022-11-21T00:48:52;47.83;39.76;72.61;;
64079;Laerm;51042;49.696;10.808;2022-11-21T00:51:17;52.95;39.82;68.52;;
64079;Laerm;51042;49.696;10.808;2022-11-21T00:53:42;48.03;39.79;65.78;;
64079;Laerm;51042;49.696;10.808;2022-11-21T00:56:08;50.69;39.55;72.77;;
64079;Laerm;51042;49.696;10.808;2022-11-21T00:58:33;47.83;40.12;71.27;;
64079;Laerm;51042;49.696;10.808;2022-11-21T01:01:04;44.00;39.69;65.46;;
64079;Laerm;51042;49.696;10.808;2022-11-21T01:03:31;49.71;39.68;67.71;;
64079;Laerm;51042;49.696;10.808;2022-11-21T01:06:07;51.52;40.20;73.38;;
64079;Laerm;51042;49.696;10.808;2022-11-21T01:08:34;51.78;39.76;74.04;;
64079;Laerm;51042;49.696;10.808;2022-11-21T01:11:03;50.24;39.66;73.82;;
64079;Laerm;51042;49.696;10.808;2022-11-21T01:13:28;57.11;39.95;78.39;;
64079;Laerm;51042;49.696;10.808;2022-11-21T01:15:54;55.28;39.80;75.39;;
64079;Laerm;51042;49.696;10.808;2022-11-21T01:18:19;54.11;40.57;74.96;;
64079;Laerm;51042;49.696;10.808;2022-11-21T01:20:44;51.46;39.89;70.66;;
64079;Laerm;51042;49.696;10.808;2022-11-21T01:23:09;56.81;39.85;76.15;;
64079;Laerm;51042;49.696;10.808;2022-11-21T01:25:35;52.07;39.29;76.59;;
64079;Laerm;51042;49.696;10.808;2022-11-21T01:28:01;54.13;39.19;77.43;;
64079;Laerm;51042;49.696;10.808;2022-11-21T01:30:26;50.33;39.83;69.43;;
64079;Laerm;51042;49.696;10.808;2022-11-21T01:32:51;54.42;40.04;71.68;;
64079;Laerm;51042;49.696;10.808;2022-11-21T01:35:17;57.56;40.42;74.79;;
64079;Laerm;51042;49.696;10.808;2022-11-21T01:37:46;53.09;39.81;76.30;;
64079;Laerm;51042;49.696;10.808;2022-11-21T01:40:12;43.62;39.06;59.79;;
64079;Laerm;51042;49.696;10.808;2022-11-21T01:45:53;51.09;39.97;68.56;;
64079;Laerm;51042;49.696;10.808;2022-11-21T01:48:28;42.64;38.57;63.91;;
64079;Laerm;51042;49.696;10.808;2022-11-21T01:50:55;56.96;39.02;74.97;;
64079;Laerm;51042;49.696;10.808;2022-11-21T01:53:24;51.80;39.42;73.29;;
64079;Laerm;51042;49.696;10.808;2022-11-21T01:55:50;60.82;39.58;82.06;;
64079;Laerm;51042;49.696;10.808;2022-11-21T01:58:16;55.79;39.44;77.62;;
64079;Laerm;51042;49.696;10.808;2022-11-21T02:00:44;44.34;39.45;62.37;;
64079;Laerm;51042;49.696;10.808;2022-11-21T02:03:14;50.79;39.78;72.87;;
64079;Laerm;51042;49.696;10.808;2022-11-21T02:05:42;49.35;39.92;69.37;;
64079;Laerm;51042;49.696;10.808;2022-11-21T02:08:13;43.83;39.17;60.37;;
64079;Laerm;51042;49.696;10.808;2022-11-21T02:10:49;45.57;39.41;68.48;;
64079;Laerm;51042;49.696;10.808;2022-11-21T02:13:17;50.94;39.34;74.80;;
64079;Laerm;51042;49.696;10.808;2022-11-21T02:15:42;49.74;39.66;73.53;;
64079;Laerm;51042;49.696;10.808;2022-11-21T02:18:08;50.36;39.73;72.30;;
64079;Laerm;51042;49.696;10.808;2022-11-21T02:20:35;51.13;39.26;67.01;;
64079;Laerm;51042;49.696;10.808;2022-11-21T02:23:18;50.79;39.48;71.34;;
64079;Laerm;51042;49.696;10.808;2022-11-21T02:25:46;56.46;40.24;72.86;;
64079;Laerm;51042;49.696;10.808;2022-11-21T02:28:14;53.95;40.30;78.50;;
64079;Laerm;51042;49.696;10.808;2022-11-21T02:30:41;57.98;39.68;79.81;;
64079;Laerm;51042;49.696;10.808;2022-11-21T02:33:07;57.13;39.31;74.99;;
64079;Laerm;51042;49.696;10.808;2022-11-21T02:35:33;57.23;39.58;73.74;;
64079;Laerm;51042;49.696;10.808;2022-11-21T02:38:03;57.10;39.57;75.53;;
64079;Laerm;51042;49.696;10.808;2022-11-21T02:40:33;49.47;39.43;67.45;;
64079;Laerm;51042;49.696;10.808;2022-11-21T02:43:13;56.17;39.41;78.82;;
64079;Laerm;51042;49.696;10.808;2022-11-21T02:45:43;49.21;39.29;74.35;;
64079;Laerm;51042;49.696;10.808;2022-11-21T02:48:09;43.05;39.49;61.72;;
64079;Laerm;51042;49.696;10.808;2022-11-21T02:50:37;45.46;40.06;64.79;;
64079;Laerm;51042;49.696;10.808;2022-11-21T02:53:05;45.68;39.40;68.00;;
64079;Laerm;51042;49.696;10.808;2022-11-21T02:55:30;48.37;39.55;73.07;;
64079;Laerm;51042;49.696;10.808;2022-11-21T02:57:56;46.49;39.68;70.66;;
64079;Laerm;51042;49.696;10.808;2022-11-21T03:00:21;50.39;39.99;69.65;;
64079;Laerm;51042;49.696;10.808;2022-11-21T03:02:47;65.57;40.72;84.58;;
64079;Laerm;51042;49.696;10.808;2022-11-21T03:05:17;59.33;40.19;76.94;;
64079;Laerm;51042;49.696;10.808;2022-11-21T03:07:43;51.48;40.30;72.68;;
64079;Laerm;51042;49.696;10.808;2022-11-21T03:10:09;57.13;41.19;82.90;;
64079;Laerm;51042;49.696;10.808;2022-11-21T03:12:35;57.43;40.63;76.77;;
64079;Laerm;51042;49.696;10.808;2022-11-21T03:15:02;54.75;40.54;78.26;;
64079;Laerm;51042;49.696;10.808;2022-11-21T03:17:27;58.77;40.50;79.33;;
64079;Laerm;51042;49.696;10.808;2022-11-21T03:19:53;55.79;40.85;75.99;;
64079;Laerm;51042;49.696;10.808;2022-11-21T03:22:18;56.52;40.94;74.31;;
64079;Laerm;51042;49.696;10.808;2022-11-21T03:24:43;52.21;39.58;74.59;;
64079;Laerm;51042;49.696;10.808;2022-11-21T03:27:08;62.96;41.07;81.34;;
64079;Laerm;51042;49.696;10.808;2022-11-21T03:29:34;60.65;40.45;81.29;;
64079;Laerm;51042;49.696;10.808;2022-11-21T03:31:59;62.67;40.36;83.41;;
64079;Laerm;51042;49.696;10.808;2022-11-21T03:34:24;61.39;41.47;83.90;;
64079;Laerm;51042;49.696;10.808;2022-11-21T03:36:50;47.47;40.34;69.69;;
64079;Laerm;51042;49.696;10.808;2022-11-21T03:39:15;55.99;40.65;72.72;;
64079;Laerm;51042;49.696;10.808;2022-11-21T03:41:41;64.86;40.92;81.34;;
64079;Laerm;51042;49.696;10.808;2022-11-21T03:44:09;53.48;40.18;77.87;;
64079;Laerm;51042;49.696;10.808;2022-11-21T03:46:37;51.80;39.45;73.05;;
64079;Laerm;51042;49.696;10.808;2022-11-21T03:49:03;51.43;40.50;76.77;;
64079;Laerm;51042;49.696;10.808;2022-11-21T03:51:29;53.95;40.16;76.78;;
64079;Laerm;51042;49.696;10.808;2022-11-21T03:53:54;66.74;40.33;84.57;;
64079;Laerm;51042;49.696;10.808;2022-11-21T03:56:19;64.97;41.05;82.51;;
64079;Laerm;51042;49.696;10.808;2022-11-21T03:58:45;62.31;41.65;82.85;;
64079;Laerm;51042;49.696;10.808;2022-11-21T04:01:10;62.70;41.81;83.52;;
64079;Laerm;51042;49.696;10.808;2022-11-21T04:03:43;58.56;41.19;74.61;;
64079;Laerm;51042;49.696;10.808;2022-11-21T04:06:10;65.00;42.94;82.94;;
64079;Laerm;51042;49.696;10.808;2022-11-21T04:08:36;60.29;44.28;77.34;;
64079;Laerm;51042;49.696;10.808;2022-11-21T04:11:01;61.37;45.10;85.40;;
64079;Laerm;51042;49.696;10.808;2022-11-21T04:13:27;61.51;47.55;74.49;;
64079;Laerm;51042;49.696;10.808;2022-11-21T04:15:52;62.14;47.87;79.88;;
64079;Laerm;51042;49.696;10.808;2022-11-21T04:18:17;64.00;49.76;89.77;;
64079;Laerm;51042;49.696;10.808;2022-11-21T04:20:43;57.82;46.78;76.66;;
64079;Laerm;51042;49.696;10.808;2022-11-21T04:23:08;61.16;45.89;74.35;;
64079;Laerm;51042;49.696;10.808;2022-11-21T04:25:34;61.71;45.35;71.89;;
64079;Laerm;51042;49.696;10.808;2022-11-21T04:28:01;66.55;47.34;82.29;;
64079;Laerm;51042;49.696;10.808;2022-11-21T04:30:27;63.15;46.55;75.84;;
64079;Laerm;51042;49.696;10.808;2022-11-21T04:32:53;66.03;47.15;89.81;;
64079;Laerm;51042;49.696;10.808;2022-11-21T04:35:19;66.11;45.81;78.81;;
64079;Laerm;51042;49.696;10.808;2022-11-21T04:37:45;64.19;44.52;76.19;;
64079;Laerm;51042;49.696;10.808;2022-11-21T04:40:11;63.89;44.37;75.28;;
64079;Laerm;51042;49.696;10.808;2022-11-21T04:42:40;64.82;48.70;76.13;;
64079;Laerm;51042;49.696;10.808;2022-11-21T04:45:06;64.52;46.06;75.57;;
64079;Laerm;51042;49.696;10.808;2022-11-21T04:47:31;65.16;44.82;78.82;;
64079;Laerm;51042;49.696;10.808;2022-11-21T04:49:56;65.17;45.37;74.01;;
64079;Laerm;51042;49.696;10.808;2022-11-21T04:52:22;65.37;45.20;78.77;;
64079;Laerm;51042;49.696;10.808;2022-11-21T04:54:47;64.55;43.08;76.01;;
64079;Laerm;51042;49.696;10.808;2022-11-21T04:57:12;62.30;43.67;73.97;;
64079;Laerm;51042;49.696;10.808;2022-11-21T04:59:38;63.36;44.15;73.22;;
64079;Laerm;51042;49.696;10.808;2022-11-21T05:02:03;72.93;42.75;92.25;;
64079;Laerm;51042;49.696;10.808;2022-11-21T05:04:28;60.68;43.23;72.17;;
64079;Laerm;51042;49.696;10.808;2022-11-21T05:06:54;65.07;42.77;81.60;;
64079;Laerm;51042;49.696;10.808;2022-11-21T05:09:19;64.32;44.14;79.60;;
64079;Laerm;51042;49.696;10.808;2022-11-21T05:11:44;64.83;45.15;78.85;;
64079;Laerm;51042;49.696;10.808;2022-11-21T05:14:28;64.27;45.14;82.13;;
64079;Laerm;51042;49.696;10.808;2022-11-21T05:16:53;63.21;44.59;74.51;;
64079;Laerm;51042;49.696;10.808;2022-11-21T05:19:18;70.54;44.32;90.51;;
64079;Laerm;51042;49.696;10.808;2022-11-21T05:21:44;61.97;43.14;74.55;;
64079;Laerm;51042;49.696;10.808;2022-11-21T05:24:09;68.77;49.78;82.30;;
64079;Laerm;51042;49.696;10.808;2022-11-21T05:26:34;64.57;44.56;83.20;;
64079;Laerm;51042;49.696;10.808;2022-11-21T05:29:00;68.88;45.58;89.47;;
64079;Laerm;51042;49.696;10.808;2022-11-21T05:31:25;64.93;46.59;75.33;;
64079;Laerm;51042;49.696;10.808;2022-11-21T05:33:50;67.04;46.23;78.80;;
64079;Laerm;51042;49.696;10.808;2022-11-21T05:36:16;67.20;45.23;81.36;;
64079;Laerm;51042;49.696;10.808;2022-11-21T05:38:41;65.64;46.96;78.84;;
64079;Laerm;51042;49.696;10.808;2022-11-21T05:41:07;64.48;44.88;78.03;;
64079;Laerm;51042;49.696;10.808;2022-11-21T05:43:32;65.41;46.15;77.61;;
64079;Laerm;51042;49.696;10.808;2022-11-21T05:46:21;69.34;48.32;83.77;;
64079;Laerm;51042;49.696;10.808;2022-11-21T05:48:48;65.33;46.15;79.51;;
64079;Laerm;51042;49.696;10.808;2022-11-21T05:51:14;63.81;46.32;76.07;;
64079;Laerm;51042;49.696;10.808;2022-11-21T05:53:40;65.03;49.24;74.15;;
64079;Laerm;51042;49.696;10.808;2022-11-21T05:56:08;67.62;49.63;85.88;;
64079;Laerm;51042;49.696;10.808;2022-11-21T05:58:34;63.53;45.23;76.03;;
64079;Laerm;51042;49.696;10.808;2022-11-21T06:00:59;64.66;43.94;78.04;;
64079;Laerm;51042;49.696;10.808;2022-11-21T06:03:26;65.52;44.76;78.84;;
64079;Laerm;51042;49.696;10.808;2022-11-21T06:06:00;63.77;42.78;76.02;;
64079;Laerm;51042;49.696;10.808;2022-11-21T06:08:27;65.93;44.92;76.72;;
64079;Laerm;51042;49.696;10.808;2022-11-21T06:10:53;62.14;44.23;72.81;;
64079;Laerm;51042;49.696;10.808;2022-11-21T06:13:19;66.23;51.03;75.05;;
64079;Laerm;51042;49.696;10.808;2022-11-21T06:16:16;65.32;43.61;75.98;;
64079;Laerm;51042;49.696;10.808;2022-11-21T06:18:43;64.50;46.02;75.57;;
64079;Laerm;51042;49.696;10.808;2022-11-21T06:21:23;66.03;50.98;81.57;;
64079;Laerm;51042;49.696;10.808;2022-11-21T06:23:50;65.03;46.67;76.82;;
64079;Laerm;51042;49.696;10.808;2022-11-21T06:26:21;67.45;46.72;86.95;;
64079;Laerm;51042;49.696;10.808;2022-11-21T06:28:47;66.10;46.90;79.36;;
64079;Laerm;51042;49.696;10.808;2022-11-21T06:31:15;64.97;45.60;78.11;;
64079;Laerm;51042;49.696;10.808;2022-11-21T06:33:41;66.39;50.84;78.01;;
64079;Laerm;51042;49.696;10.808;2022-11-21T06:36:09;90.86;46.63;111.13;;
64079;Laerm;51042;49.696;10.808;2022-11-21T06:38:35;65.29;50.76;76.56;;
64079;Laerm;51042;49.696;10.808;2022-11-21T06:41:06;69.80;48.97;86.23;;
64079;Laerm;51042;49.696;10.808;2022-11-21T06:43:32;66.64;51.57;77.97;;
64079;Laerm;51042;49.696;10.808;2022-11-21T06:45:57;67.69;50.59;83.33;;
64079;Laerm;51042;49.696;10.808;2022-11-21T06:48:24;66.51;51.68;88.80;;
64079;Laerm;51042;49.696;10.808;2022-11-21T06:50:49;67.70;51.01;81.38;;
64079;Laerm;51042;49.696;10.808;2022-11-21T06:53:14;67.73;49.32;81.76;;
64079;Laerm;51042;49.696;10.808;2022-11-21T06:55:40;68.85;49.41;83.76;;
64079;Laerm;51042;49.696;10.808;2022-11-21T06:58:05;65.68;46.72;74.29;;
64079;Laerm;51042;49.696;10.808;2022-11-21T07:00:30;67.34;49.03;81.00;;
64079;Laerm;51042;49.696;10.808;2022-11-21T07:03:00;67.76;47.93;73.52;;
64079;Laerm;51042;49.696;10.808;2022-11-21T07:05:25;67.25;50.79;78.05;;
64079;Laerm;51042;49.696;10.808;2022-11-21T07:07:51;67.29;51.57;80.89;;
64079;Laerm;51042;49.696;10.808;2022-11-21T07:10:16;66.82;48.21;78.11;;
64079;Laerm;51042;49.696;10.808;2022-11-21T07:12:41;66.74;47.39;80.50;;
64079;Laerm;51042;49.696;10.808;2022-11-21T07:15:25;68.39;45.58;83.15;;
64079;Laerm;51042;49.696;10.808;2022-11-21T07:17:50;66.85;47.92;79.55;;
64079;Laerm;51042;49.696;10.808;2022-11-21T07:20:16;65.24;48.59;76.28;;
64079;Laerm;51042;49.696;10.808;2022-11-21T07:22:41;64.93;44.08;76.75;;
64079;Laerm;51042;49.696;10.808;2022-11-21T07:25:07;69.60;45.00;93.83;;
64079;Laerm;51042;49.696;10.808;2022-11-21T07:27:32;65.37;52.49;76.26;;
64079;Laerm;51042;49.696;10.808;2022-11-21T07:29:57;65.09;46.90;73.50;;
64079;Laerm;51042;49.696;10.808;2022-11-21T07:32:26;65.26;50.28;75.30;;
64079;Laerm;51042;49.696;10.808;2022-11-21T07:34:52;66.37;50.24;77.88;;
64079;Laerm;51042;49.696;10.808;2022-11-21T07:37:17;65.73;46.45;76.23;;
64079;Laerm;51042;49.696;10.808;2022-11-21T07:39:42;67.30;46.63;76.17;;
64079;Laerm;51042;49.696;10.808;2022-11-21T07:42:08;67.42;48.19;78.69;;
64079;Laerm;51042;49.696;10.808;2022-11-21T07:44:33;65.59;47.64;76.28;;
64079;Laerm;51042;49.696;10.808;2022-11-21T07:46:58;66.02;48.06;77.50;;
64079;Laerm;51042;49.696;10.808;2022-11-21T07:49:24;65.57;49.92;76.25;;
64079;Laerm;51042;49.696;10.808;2022-11-21T07:51:49;66.47;50.71;84.57;;
64079;Laerm;51042;49.696;10.808;2022-11-21T07:54:15;67.63;48.52;81.97;;
64079;Laerm;51042;49.696;10.808;2022-11-21T07:56:40;65.05;49.22;74.40;;
64079;Laerm;51042;49.696;10.808;2022-11-21T07:59:05;64.68;46.05;75.66;;
64079;Laerm;51042;49.696;10.808;2022-11-21T08:01:31;62.91;45.52;75.66;;
64079;Laerm;51042;49.696;10.808;2022-11-21T08:03:56;64.43;50.70;77.50;;
64079;Laerm;51042;49.696;10.808;2022-11-21T08:06:21;61.80;50.00;73.01;;
64079;Laerm;51042;49.696;10.808;2022-11-21T08:08:51;65.38;47.68;84.32;;
64079;Laerm;51042;49.696;10.808;2022-11-21T08:11:17;64.92;48.45;75.07;;
64079;Laerm;51042;49.696;10.808;2022-11-21T08:13:42;65.22;50.87;76.87;;
64079;Laerm;51042;49.696;10.808;2022-11-21T08:16:07;65.01;50.11;79.82;;
64079;Laerm;51042;49.696;10.808;2022-11-21T08:18:32;66.62;50.92;77.40;;
64079;Laerm;51042;49.696;10.808;2022-11-21T08:21:01;65.71;47.74;81.76;;
64079;Laerm;51042;49.696;10.808;2022-11-21T08:23:27;69.59;51.61;92.10;;
64079;Laerm;51042;49.696;10.808;2022-11-21T08:25:52;66.25;48.07;93.78;;
64079;Laerm;51042;49.696;10.808;2022-11-21T08:28:18;66.40;49.33;84.43;;
64079;Laerm;51042;49.696;10.808;2022-11-21T08:30:43;67.93;52.97;87.70;;
64079;Laerm;51042;49.696;10.808;2022-11-21T08:33:08;64.93;49.77;75.95;;
64079;Laerm;51042;49.696;10.808;2022-11-21T08:35:35;63.46;43.52;72.88;;
64079;Laerm;51042;49.696;10.808;2022-11-21T08:38:02;65.17;46.77;86.37;;
64079;Laerm;51042;49.696;10.808;2022-11-21T08:40:28;66.70;45.23;80.95;;
64079;Laerm;51042;49.696;10.808;2022-11-21T08:45:23;65.56;48.02;79.11;;
64079;Laerm;51042;49.696;10.808;2022-11-21T08:47:49;66.77;51.17;82.19;;
64079;Laerm;51042;49.696;10.808;2022-11-21T08:50:14;66.90;51.03;78.72;;
64079;Laerm;51042;49.696;10.808;2022-11-21T08:52:39;66.02;50.95;81.43;;
64079;Laerm;51042;49.696;10.808;2022-11-21T08:55:05;68.74;48.42;96.28;;
64079;Laerm;51042;49.696;10.808;2022-11-21T08:57:30;66.41;47.58;73.50;;
64079;Laerm;51042;49.696;10.808;2022-11-21T08:59:56;65.76;46.03;75.24;;
64079;Laerm;51042;49.696;10.808;2022-11-21T09:02:21;65.13;47.95;80.03;;
64079;Laerm;51042;49.696;10.808;2022-11-21T09:04:47;61.81;47.05;77.05;;
64079;Laerm;51042;49.696;10.808;2022-11-21T09:07:12;66.53;52.52;76.28;;
64079;Laerm;51042;49.696;10.808;2022-11-21T09:09:37;63.62;43.84;77.12;;
64079;Laerm;51042;49.696;10.808;2022-11-21T09:12:02;66.52;48.77;76.33;;
64079;Laerm;51042;49.696;10.808;2022-11-21T09:14:28;64.16;52.49;75.51;;
64079;Laerm;51042;49.696;10.808;2022-11-21T09:17:12;68.09;55.45;79.29;;
64079;Laerm;51042;49.696;10.808;2022-11-21T09:19:56;64.96;48.40;77.86;;
64079;Laerm;51042;49.696;10.808;2022-11-21T09:22:23;66.99;50.52;89.33;;
64079;Laerm;51042;49.696;10.808;2022-11-21T09:24:49;67.30;52.59;88.38;;
64079;Laerm;51042;49.696;10.808;2022-11-21T09:27:14;69.58;51.24;96.90;;
64079;Laerm;51042;49.696;10.808;2022-11-21T09:29:39;70.83;53.47;81.87;;
64079;Laerm;51042;49.696;10.808;2022-11-21T09:32:05;68.86;50.99;82.03;;
64079;Laerm;51042;49.696;10.808;2022-11-21T09:34:30;68.79;51.63;82.52;;
64079;Laerm;51042;49.696;10.808;2022-11-21T09:36:55;68.25;51.24;82.46;;
64079;Laerm;51042;49.696;10.808;2022-11-21T09:39:21;67.83;53.89;80.72;;
64079;Laerm;51042;49.696;10.808;2022-11-21T09:41:58;67.01;50.00;79.54;;
64079;Laerm;51042;49.696;10.808;2022-11-21T09:45:03;69.23;50.04;87.62;;
64079;Laerm;51042;49.696;10.808;2022-11-21T09:47:32;67.35;50.54;78.56;;
64079;Laerm;51042;49.696;10.808;2022-11-21T09:50:20;67.55;52.36;81.89;;
64079;Laerm;51042;49.696;10.808;2022-11-21T09:52:52;66.71;49.86;82.88;;
64079;Laerm;51042;49.696;10.808;2022-11-21T09:57:52;68.16;56.91;77.89;;
64079;Laerm;51042;49.696;10.808;2022-11-21T10:00:24;67.24;55.99;73.80;;
64079;Laerm;51042;49.696;10.808;2022-11-21T10:02:50;67.09;49.59;76.73;;
64079;Laerm;51042;49.696;10.808;2022-11-21T10:05:24;66.68;48.15;77.58;;
64079;Laerm;51042;49.696;10.808;2022-11-21T10:07:56;66.32;53.06;79.80;;
64079;Laerm;51042;49.696;10.808;2022-11-21T10:12:58;79.23;66.27;89.37;;
64079;Laerm;51042;49.696;10.808;2022-11-21T10:28:50;76.05;60.87;84.46;;
64079;Laerm;51042;49.696;10.808;2022-11-21T10:31:17;73.97;56.14;82.97;;
64079;Laerm;51042;49.696;10.808;2022-11-21T10:33:43;66.29;50.35;74.57;;
64079;Laerm;51042;49.696;10.808;2022-11-21T10:36:32;68.43;53.03;83.13;;
64079;Laerm;51042;49.696;10.808;2022-11-21T10:39:12;66.85;50.44;76.25;;
64079;Laerm;51042;49.696;10.808;2022-11-21T10:41:56;65.98;52.70;76.52;;
64079;Laerm;51042;49.696;10.808;2022-11-21T10:44:27;65.73;50.26;75.02;;
64079;Laerm;51042;49.696;10.808;2022-11-21T10:47:14;66.34;48.97;80.84;;
64079;Laerm;51042;49.696;10.808;2022-11-21T10:49:41;70.99;53.45;82.58;;
64079;Laerm;51042;49.696;10.808;2022-11-21T10:52:16;74.46;69.04;78.98;;
64079;Laerm;51042;49.696;10.808;2022-11-21T10:57:29;67.08;52.14;77.84;;
64079;Laerm;51042;49.696;10.808;2022-11-21T11:00:22;67.10;52.28;82.62;;
64079;Laerm;51042;49.696;10.808;2022-11-21T11:05:23;67.62;53.11;79.70;;
64079;Laerm;51042;49.696;10.808;2022-11-21T11:10:39;63.87;46.62;76.64;;
64079;Laerm;51042;49.696;10.808;2022-11-21T11:13:19;66.60;48.33;81.60;;
64079;Laerm;51042;49.696;10.808;2022-11-21T11:16:00;66.19;50.39;76.07;;
64079;Laerm;51042;49.696;10.808;2022-11-21T11:18:26;66.84;50.60;75.57;;
64079;Laerm;51042;49.696;10.808;2022-11-21T11:20:52;66.35;51.90;77.06;;
64079;Laerm;51042;49.696;10.808;2022-11-21T11:25:51;66.97;48.55;79.99;;
64079;Laerm;51042;49.696;10.808;2022-11-21T11:28:17;66.76;46.95;83.05;;
64079;Laerm;51042;49.696;10.808;2022-11-21T11:30:43;64.69;49.79;73.70;;
64079;Laerm;51042;49.696;10.808;2022-11-21T11:38:42;65.64;50.47;76.86;;
64079;Laerm;51042;49.696;10.808;2022-11-21T11:44:08;66.28;50.69;82.05;;
64079;Laerm;51042;49.696;10.808;2022-11-21T11:47:05;67.28;43.58;79.31;;
64079;Laerm;51042;49.696;10.808;2022-11-21T11:49:54;66.38;46.00;80.29;;
64079;Laerm;51042;49.696;10.808;2022-11-21T11:55:31;66.62;45.22;77.18;;
64079;Laerm;51042;49.696;10.808;2022-11-21T11:58:00;68.11;45.71;86.05;;
64079;Laerm;51042;49.696;10.808;2022-11-21T12:00:37;66.37;44.81;78.65;;
64079;Laerm;51042;49.696;10.808;2022-11-21T12:03:15;64.53;47.66;76.29;;
64079;Laerm;51042;49.696;10.808;2022-11-21T12:06:03;66.45;46.84;76.74;;
64079;Laerm;51042;49.696;10.808;2022-11-21T12:08:40;67.14;51.27;76.45;;
64079;Laerm;51042;49.696;10.808;2022-11-21T12:17:19;66.27;45.04;77.93;;
64079;Laerm;51042;49.696;10.808;2022-11-21T12:19:46;69.23;52.56;85.63;;
64079;Laerm;51042;49.696;10.808;2022-11-21T12:22:14;67.24;47.53;82.12;;
64079;Laerm;51042;49.696;10.808;2022-11-21T12:24:39;66.95;45.29;80.53;;
64079;Laerm;51042;49.696;10.808;2022-11-21T12:27:27;64.91;48.27;74.91;;
64079;Laerm;51042;49.696;10.808;2022-11-21T12:30:29;71.69;52.33;91.79;;
64079;Laerm;51042;49.696;10.808;2022-11-21T12:33:02;64.00;44.90;77.78;;
64079;Laerm;51042;49.696;10.808;2022-11-21T12:38:15;70.02;44.42;87.70;;
64079;Laerm;51042;49.696;10.808;2022-11-21T12:46:19;66.76;49.81;79.05;;
64079;Laerm;51042;49.696;10.808;2022-11-21T12:49:13;66.27;53.09;75.73;;
64079;Laerm;51042;49.696;10.808;2022-11-21T12:52:21;65.04;47.36;78.36;;
64079;Laerm;51042;49.696;10.808;2022-11-21T12:55:29;65.32;51.69;74.81;;
64079;Laerm;51042;49.696;10.808;2022-11-21T12:58:32;64.32;49.01;75.29;;
64079;Laerm;51042;49.696;10.808;2022-11-21T13:05:57;66.23;53.90;77.14;;
64079;Laerm;51042;49.696;10.808;2022-11-21T13:08:30;69.95;56.84;84.62;;
64079;Laerm;51042;49.696;10.808;2022-11-21T13:14:28;67.04;51.05;85.66;;
64079;Laerm;51042;49.696;10.808;2022-11-21T13:19:59;72.81;56.57;80.35;;
64079;Laerm;51042;49.696;10.808;2022-11-21T13:27:36;72.09;51.10;81.53;;
64079;Laerm;51042;49.696;10.808;2022-11-21T13:32:37;67.34;53.98;81.62;;
64079;Laerm;51042;49.696;10.808;2022-11-21T13:45:47;73.26;52.87;78.52;;
64079;Laerm;51042;49.696;10.808;2022-11-21T13:54:54;66.87;52.98;74.22;;
64079;Laerm;51042;49.696;10.808;2022-11-21T14:02:34;70.27;53.60;78.12;;
64079;Laerm;51042;49.696;10.808;2022-11-21T14:07:44;74.18;70.03;82.27;;
64079;Laerm;51042;49.696;10.808;2022-11-21T14:12:56;65.54;48.38;74.33;;
64079;Laerm;51042;49.696;10.808;2022-11-21T14:15:30;66.69;50.67;88.47;;
64079;Laerm;51042;49.696;10.808;2022-11-21T14:17:59;73.93;51.22;82.38;;
64079;Laerm;51042;49.696;10.808;2022-11-21T14:20:28;76.10;59.61;82.82;;
64079;Laerm;51042;49.696;10.808;2022-11-21T14:23:14;73.48;49.09;81.23;;
64079;Laerm;51042;49.696;10.808;2022-11-21T14:25:44;69.09;47.45;82.41;;
64079;Laerm;51042;49.696;10.808;2022-11-21T14:28:36;76.28;47.15;82.05;;
64079;Laerm;51042;49.696;10.808;2022-11-21T14:31:03;75.06;69.46;79.13;;
64079;Laerm;51042;49.696;10.808;2022-11-21T14:33:39;75.05;65.75;78.28;;
64079;Laerm;51042;49.696;10.808;2022-11-21T14:39:08;75.11;62.52;87.63;;
64079;Laerm;51042;49.696;10.808;2022-11-21T14:41:36;77.17;68.72;82.96;;
64079;Laerm;51042;49.696;10.808;2022-11-21T14:51:37;70.01;50.54;78.93;;
64079;Laerm;51042;49.696;10.808;2022-11-21T14:54:02;65.57;52.85;74.90;;
64079;Laerm;51042;49.696;10.808;2022-11-21T14:56:29;66.26;51.73;80.17;;
64079;Laerm;51042;49.696;10.808;2022-11-21T14:58:57;67.34;49.17;83.32;;
64079;Laerm;51042;49.696;10.808;2022-11-21T15:01:27;66.42;50.46;81.11;;
64079;Laerm;51042;49.696;10.808;2022-11-21T15:03:57;69.05;53.43;83.63;;
64079;Laerm;51042;49.696;10.808;2022-11-21T15:06:23;64.57;47.10;74.84;;
64079;Laerm;51042;49.696;10.808;2022-11-21T15:08:53;64.54;46.15;77.35;;
64079;Laerm;51042;49.696;10.808;2022-11-21T15:11:34;65.17;48.24;74.27;;
64079;Laerm;51042;49.696;10.808;2022-11-21T15:14:16;65.15;46.41;76.88;;
64079;Laerm;51042;49.696;10.808;2022-11-21T15:16:47;66.11;50.58;78.38;;
64079;Laerm;51042;49.696;10.808;2022-11-21T15:19:22;65.50;44.04;78.13;;
64079;Laerm;51042;49.696;10.808;2022-11-21T15:21:50;63.27;50.98;71.12;;
64079;Laerm;51042;49.696;10.808;2022-11-21T15:26:52;63.61;46.01;72.22;;
64079;Laerm;51042;49.696;10.808;2022-11-21T15:29:20;65.57;49.35;76.90;;
64079;Laerm;51042;49.696;10.808;2022-11-21T15:32:04;66.97;48.54;80.90;;
64079;Laerm;51042;49.696;10.808;2022-11-21T15:34:30;65.14;50.41;75.45;;
64079;Laerm;51042;49.696;10.808;2022-11-21T15:37:10;65.75;52.47;75.62;;
64079;Laerm;51042;49.696;10.808;2022-11-21T15:39:42;66.26;51.64;75.67;;
64079;Laerm;51042;49.696;10.808;2022-11-21T15:42:27;65.80;50.26;74.86;;